sensor_id;sensor_type;location;lat;lon;timestamp;P1;durP1;ratioP1;P2;durP2;ratioP2
67132;SDS011;54052;53.542;49.408;2022-10-26T00:00:48;2.67;;;0.70;;
67132;SDS011;54052;53.542;49.408;2022-10-26T00:03:15;1.55;;;0.80;;
67132;SDS011;54052;53.542;49.408;2022-10-26T00:05:41;3.10;;;0.63;;
67132;SDS011;54052;53.542;49.408;2022-10-26T00:08:08;0.98;;;0.70;;
67132;SDS011;54052;53.542;49.408;2022-10-26T00:10:35;0.75;;;0.50;;
67132;SDS011;54052;53.542;49.408;2022-10-26T00:13:02;4.78;;;0.50;;
67132;SDS011;54052;53.542;49.408;2022-10-26T00:15:30;2.30;;;0.45;;
67132;SDS011;54052;53.542;49.408;2022-10-26T00:17:56;2.05;;;0.80;;
67132;SDS011;54052;53.542;49.408;2022-10-26T00:20:22;2.90;;;0.55;;
67132;SDS011;54052;53.542;49.408;2022-10-26T00:22:48;3.22;;;0.70;;
67132;SDS011;54052;53.542;49.408;2022-10-26T00:25:14;1.17;;;0.60;;
67132;SDS011;54052;53.542;49.408;2022-10-26T00:27:40;1.70;;;0.68;;
67132;SDS011;54052;53.542;49.408;2022-10-26T00:30:06;1.98;;;0.50;;
67132;SDS011;54052;53.542;49.408;2022-10-26T00:32:33;1.20;;;0.50;;
67132;SDS011;54052;53.542;49.408;2022-10-26T00:34:59;1.83;;;0.88;;
67132;SDS011;54052;53.542;49.408;2022-10-26T00:37:25;4.03;;;0.98;;
67132;SDS011;54052;53.542;49.408;2022-10-26T00:39:51;1.42;;;0.63;;
67132;SDS011;54052;53.542;49.408;2022-10-26T00:42:19;1.23;;;0.70;;
67132;SDS011;54052;53.542;49.408;2022-10-26T00:49:46;0.85;;;0.57;;
67132;SDS011;54052;53.542;49.408;2022-10-26T00:52:14;1.63;;;0.80;;
67132;SDS011;54052;53.542;49.408;2022-10-26T00:54:42;3.60;;;0.80;;
67132;SDS011;54052;53.542;49.408;2022-10-26T00:57:09;3.42;;;0.80;;
67132;SDS011;54052;53.542;49.408;2022-10-26T00:59:41;3.22;;;0.60;;
67132;SDS011;54052;53.542;49.408;2022-10-26T01:02:08;1.15;;;0.65;;
67132;SDS011;54052;53.542;49.408;2022-10-26T01:04:34;2.00;;;0.75;;
67132;SDS011;54052;53.542;49.408;2022-10-26T01:07:00;10.20;;;0.70;;
67132;SDS011;54052;53.542;49.408;2022-10-26T01:09:29;1.55;;;0.60;;
67132;SDS011;54052;53.542;49.408;2022-10-26T01:11:57;1.02;;;0.57;;
67132;SDS011;54052;53.542;49.408;2022-10-26T01:14:23;4.32;;;0.60;;
67132;SDS011;54052;53.542;49.408;2022-10-26T01:35:51;1.27;;;0.50;;
67132;SDS011;54052;53.542;49.408;2022-10-26T01:38:39;3.30;;;0.70;;
67132;SDS011;54052;53.542;49.408;2022-10-26T01:41:20;2.50;;;0.38;;
67132;SDS011;54052;53.542;49.408;2022-10-26T01:43:49;1.30;;;0.40;;
67132;SDS011;54052;53.542;49.408;2022-10-26T01:46:32;1.48;;;1.02;;
67132;SDS011;54052;53.542;49.408;2022-10-26T01:49:02;1.80;;;0.70;;
67132;SDS011;54052;53.542;49.408;2022-10-26T01:51:32;5.03;;;0.70;;
67132;SDS011;54052;53.542;49.408;2022-10-26T01:54:00;0.45;;;0.35;;
67132;SDS011;54052;53.542;49.408;2022-10-26T01:56:27;1.30;;;0.60;;
67132;SDS011;54052;53.542;49.408;2022-10-26T01:59:07;2.25;;;0.60;;
67132;SDS011;54052;53.542;49.408;2022-10-26T02:04:24;3.03;;;0.50;;
67132;SDS011;54052;53.542;49.408;2022-10-26T02:15:14;2.40;;;0.70;;
67132;SDS011;54052;53.542;49.408;2022-10-26T02:20:33;1.17;;;0.50;;
67132;SDS011;54052;53.542;49.408;2022-10-26T02:23:04;3.17;;;0.80;;
67132;SDS011;54052;53.542;49.408;2022-10-26T02:25:33;1.30;;;0.60;;
67132;SDS011;54052;53.542;49.408;2022-10-26T02:28:08;1.70;;;0.52;;
67132;SDS011;54052;53.542;49.408;2022-10-26T02:30:37;1.25;;;0.60;;
67132;SDS011;54052;53.542;49.408;2022-10-26T02:33:05;3.60;;;0.70;;
67132;SDS011;54052;53.542;49.408;2022-10-26T02:35:34;1.08;;;0.70;;
67132;SDS011;54052;53.542;49.408;2022-10-26T02:38:03;2.40;;;0.80;;
67132;SDS011;54052;53.542;49.408;2022-10-26T02:40:33;2.63;;;0.75;;
67132;SDS011;54052;53.542;49.408;2022-10-26T02:43:01;1.77;;;0.60;;
67132;SDS011;54052;53.542;49.408;2022-10-26T02:45:35;2.83;;;0.80;;
67132;SDS011;54052;53.542;49.408;2022-10-26T02:48:07;3.42;;;0.50;;
67132;SDS011;54052;53.542;49.408;2022-10-26T02:51:35;1.13;;;0.70;;
67132;SDS011;54052;53.542;49.408;2022-10-26T02:56:43;2.05;;;1.10;;
67132;SDS011;54052;53.542;49.408;2022-10-26T03:01:43;3.47;;;1.05;;
67132;SDS011;54052;53.542;49.408;2022-10-26T03:04:10;5.30;;;1.13;;
67132;SDS011;54052;53.542;49.408;2022-10-26T03:06:36;2.53;;;1.00;;
67132;SDS011;54052;53.542;49.408;2022-10-26T03:09:02;4.00;;;1.33;;
67132;SDS011;54052;53.542;49.408;2022-10-26T03:11:28;8.68;;;1.25;;
67132;SDS011;54052;53.542;49.408;2022-10-26T03:13:54;1.20;;;0.80;;
67132;SDS011;54052;53.542;49.408;2022-10-26T03:16:20;1.58;;;0.70;;
67132;SDS011;54052;53.542;49.408;2022-10-26T03:18:48;2.97;;;1.13;;
67132;SDS011;54052;53.542;49.408;2022-10-26T03:21:14;1.65;;;0.70;;
67132;SDS011;54052;53.542;49.408;2022-10-26T03:23:40;1.17;;;0.60;;
67132;SDS011;54052;53.542;49.408;2022-10-26T03:26:06;1.85;;;0.60;;
67132;SDS011;54052;53.542;49.408;2022-10-26T03:28:32;1.70;;;0.70;;
67132;SDS011;54052;53.542;49.408;2022-10-26T03:30:58;2.92;;;0.80;;
67132;SDS011;54052;53.542;49.408;2022-10-26T03:33:24;1.63;;;0.60;;
67132;SDS011;54052;53.542;49.408;2022-10-26T03:35:53;1.65;;;0.70;;
67132;SDS011;54052;53.542;49.408;2022-10-26T03:38:21;3.67;;;0.50;;
67132;SDS011;54052;53.542;49.408;2022-10-26T03:40:47;1.88;;;0.50;;
67132;SDS011;54052;53.542;49.408;2022-10-26T03:43:13;5.82;;;0.50;;
67132;SDS011;54052;53.542;49.408;2022-10-26T03:45:39;6.75;;;0.85;;
67132;SDS011;54052;53.542;49.408;2022-10-26T03:48:05;2.60;;;0.70;;
67132;SDS011;54052;53.542;49.408;2022-10-26T03:50:30;1.58;;;0.55;;
67132;SDS011;54052;53.542;49.408;2022-10-26T03:52:56;3.28;;;1.00;;
67132;SDS011;54052;53.542;49.408;2022-10-26T03:55:22;4.78;;;1.02;;
67132;SDS011;54052;53.542;49.408;2022-10-26T03:57:49;2.95;;;1.52;;
67132;SDS011;54052;53.542;49.408;2022-10-26T04:00:20;11.25;;;1.92;;
67132;SDS011;54052;53.542;49.408;2022-10-26T04:02:52;6.47;;;1.40;;
67132;SDS011;54052;53.542;49.408;2022-10-26T04:05:22;9.98;;;1.08;;
67132;SDS011;54052;53.542;49.408;2022-10-26T04:07:56;4.00;;;1.00;;
67132;SDS011;54052;53.542;49.408;2022-10-26T04:10:24;2.55;;;1.10;;
67132;SDS011;54052;53.542;49.408;2022-10-26T04:12:52;5.22;;;1.70;;
67132;SDS011;54052;53.542;49.408;2022-10-26T04:15:25;6.15;;;1.80;;
67132;SDS011;54052;53.542;49.408;2022-10-26T04:17:58;3.90;;;1.77;;
67132;SDS011;54052;53.542;49.408;2022-10-26T04:20:26;2.17;;;0.85;;
67132;SDS011;54052;53.542;49.408;2022-10-26T04:23:26;0.88;;;0.52;;
67132;SDS011;54052;53.542;49.408;2022-10-26T04:25:45;2.70;;;0.57;;
67132;SDS011;54052;53.542;49.408;2022-10-26T04:28:12;2.85;;;0.82;;
67132;SDS011;54052;53.542;49.408;2022-10-26T04:30:38;1.33;;;0.70;;
67132;SDS011;54052;53.542;49.408;2022-10-26T04:33:05;4.95;;;0.77;;
67132;SDS011;54052;53.542;49.408;2022-10-26T04:35:31;1.67;;;0.68;;
67132;SDS011;54052;53.542;49.408;2022-10-26T04:37:58;0.93;;;0.50;;
67132;SDS011;54052;53.542;49.408;2022-10-26T04:40:25;2.05;;;0.40;;
67132;SDS011;54052;53.542;49.408;2022-10-26T04:42:52;1.10;;;0.95;;
67132;SDS011;54052;53.542;49.408;2022-10-26T04:45:19;1.67;;;0.65;;
67132;SDS011;54052;53.542;49.408;2022-10-26T04:47:46;4.30;;;0.63;;
67132;SDS011;54052;53.542;49.408;2022-10-26T04:50:12;4.72;;;0.50;;
67132;SDS011;54052;53.542;49.408;2022-10-26T04:52:39;3.13;;;0.57;;
67132;SDS011;54052;53.542;49.408;2022-10-26T04:55:05;3.17;;;0.88;;
67132;SDS011;54052;53.542;49.408;2022-10-26T04:57:32;0.85;;;0.52;;
67132;SDS011;54052;53.542;49.408;2022-10-26T05:00:00;1.10;;;0.40;;
67132;SDS011;54052;53.542;49.408;2022-10-26T05:02:27;3.60;;;0.45;;
67132;SDS011;54052;53.542;49.408;2022-10-26T05:04:53;0.63;;;0.30;;
67132;SDS011;54052;53.542;49.408;2022-10-26T05:07:19;0.98;;;0.38;;
67132;SDS011;54052;53.542;49.408;2022-10-26T05:09:45;2.90;;;0.50;;
67132;SDS011;54052;53.542;49.408;2022-10-26T05:12:22;0.63;;;0.40;;
67132;SDS011;54052;53.542;49.408;2022-10-26T05:14:48;2.50;;;0.40;;
67132;SDS011;54052;53.542;49.408;2022-10-26T05:17:14;0.95;;;0.38;;
67132;SDS011;54052;53.542;49.408;2022-10-26T05:19:40;0.88;;;0.28;;
67132;SDS011;54052;53.542;49.408;2022-10-26T05:22:06;0.43;;;0.10;;
67132;SDS011;54052;53.542;49.408;2022-10-26T05:24:32;0.85;;;0.30;;
67132;SDS011;54052;53.542;49.408;2022-10-26T05:26:59;3.25;;;0.30;;
67132;SDS011;54052;53.542;49.408;2022-10-26T05:29:25;0.82;;;0.30;;
67132;SDS011;54052;53.542;49.408;2022-10-26T05:31:51;0.88;;;0.38;;
67132;SDS011;54052;53.542;49.408;2022-10-26T05:34:18;2.25;;;0.20;;
67132;SDS011;54052;53.542;49.408;2022-10-26T05:36:44;3.95;;;0.40;;
67132;SDS011;54052;53.542;49.408;2022-10-26T05:39:10;0.93;;;0.40;;
67132;SDS011;54052;53.542;49.408;2022-10-26T05:41:36;1.95;;;0.40;;
67132;SDS011;54052;53.542;49.408;2022-10-26T05:44:13;0.80;;;0.20;;
67132;SDS011;54052;53.542;49.408;2022-10-26T05:46:39;0.98;;;0.20;;
67132;SDS011;54052;53.542;49.408;2022-10-26T05:49:06;0.57;;;0.30;;
67132;SDS011;54052;53.542;49.408;2022-10-26T05:51:32;0.80;;;0.20;;
67132;SDS011;54052;53.542;49.408;2022-10-26T05:54:02;0.93;;;0.30;;
67132;SDS011;54052;53.542;49.408;2022-10-26T05:56:35;0.88;;;0.20;;
67132;SDS011;54052;53.542;49.408;2022-10-26T05:59:14;0.30;;;0.20;;
67132;SDS011;54052;53.542;49.408;2022-10-26T06:06:54;0.13;;;0.10;;
67132;SDS011;54052;53.542;49.408;2022-10-26T06:09:22;0.30;;;0.20;;
67132;SDS011;54052;53.542;49.408;2022-10-26T06:11:48;0.47;;;0.20;;
67132;SDS011;54052;53.542;49.408;2022-10-26T06:14:15;0.28;;;0.10;;
67132;SDS011;54052;53.542;49.408;2022-10-26T06:30:46;0.80;;;0.40;;
67132;SDS011;54052;53.542;49.408;2022-10-26T06:33:12;0.47;;;0.10;;
67132;SDS011;54052;53.542;49.408;2022-10-26T06:38:19;1.33;;;0.28;;
67132;SDS011;54052;53.542;49.408;2022-10-26T06:40:47;0.40;;;0.20;;
67132;SDS011;54052;53.542;49.408;2022-10-26T06:43:20;0.60;;;0.20;;
67132;SDS011;54052;53.542;49.408;2022-10-26T06:45:51;1.75;;;0.40;;
67132;SDS011;54052;53.542;49.408;2022-10-26T06:48:25;3.70;;;0.50;;
67132;SDS011;54052;53.542;49.408;2022-10-26T06:50:54;4.65;;;0.20;;
67132;SDS011;54052;53.542;49.408;2022-10-26T06:56:29;0.90;;;0.30;;
67132;SDS011;54052;53.542;49.408;2022-10-26T06:58:58;0.70;;;0.20;;
67132;SDS011;54052;53.542;49.408;2022-10-26T07:01:28;0.63;;;0.28;;
67132;SDS011;54052;53.542;49.408;2022-10-26T07:03:54;0.50;;;0.15;;
67132;SDS011;54052;53.542;49.408;2022-10-26T07:06:20;0.80;;;0.20;;
67132;SDS011;54052;53.542;49.408;2022-10-26T07:08:53;0.43;;;0.20;;
67132;SDS011;54052;53.542;49.408;2022-10-26T07:11:19;0.85;;;0.30;;
67132;SDS011;54052;53.542;49.408;2022-10-26T07:13:45;0.13;;;0.10;;
67132;SDS011;54052;53.542;49.408;2022-10-26T07:16:11;0.50;;;0.25;;
67132;SDS011;54052;53.542;49.408;2022-10-26T07:18:37;1.05;;;0.25;;
67132;SDS011;54052;53.542;49.408;2022-10-26T07:21:03;0.30;;;0.20;;
67132;SDS011;54052;53.542;49.408;2022-10-26T07:23:29;0.32;;;0.20;;
67132;SDS011;54052;53.542;49.408;2022-10-26T07:25:57;3.63;;;0.10;;
67132;SDS011;54052;53.542;49.408;2022-10-26T07:28:24;0.77;;;0.20;;
67132;SDS011;54052;53.542;49.408;2022-10-26T07:30:50;1.73;;;0.20;;
67132;SDS011;54052;53.542;49.408;2022-10-26T07:33:16;1.48;;;0.20;;
67132;SDS011;54052;53.542;49.408;2022-10-26T07:35:46;1.08;;;0.28;;
67132;SDS011;54052;53.542;49.408;2022-10-26T07:38:12;0.65;;;0.20;;
67132;SDS011;54052;53.542;49.408;2022-10-26T07:40:38;7.03;;;0.35;;
67132;SDS011;54052;53.542;49.408;2022-10-26T07:43:04;1.75;;;0.20;;
67132;SDS011;54052;53.542;49.408;2022-10-26T07:45:31;2.35;;;0.35;;
67132;SDS011;54052;53.542;49.408;2022-10-26T07:47:57;5.72;;;0.60;;
67132;SDS011;54052;53.542;49.408;2022-10-26T07:50:23;0.90;;;0.30;;
67132;SDS011;54052;53.542;49.408;2022-10-26T07:52:49;5.97;;;0.40;;
67132;SDS011;54052;53.542;49.408;2022-10-26T07:55:15;0.32;;;0.20;;
67132;SDS011;54052;53.542;49.408;2022-10-26T07:57:42;0.70;;;0.20;;
67132;SDS011;54052;53.542;49.408;2022-10-26T08:00:08;0.47;;;0.30;;
67132;SDS011;54052;53.542;49.408;2022-10-26T08:02:35;3.22;;;0.10;;
67132;SDS011;54052;53.542;49.408;2022-10-26T08:05:01;0.65;;;0.20;;
67132;SDS011;54052;53.542;49.408;2022-10-26T08:07:27;0.40;;;0.10;;
67132;SDS011;54052;53.542;49.408;2022-10-26T08:09:54;0.30;;;0.20;;
67132;SDS011;54052;53.542;49.408;2022-10-26T08:12:20;1.70;;;0.43;;
67132;SDS011;54052;53.542;49.408;2022-10-26T08:14:46;1.25;;;0.50;;
67132;SDS011;54052;53.542;49.408;2022-10-26T08:17:11;2.50;;;0.38;;
67132;SDS011;54052;53.542;49.408;2022-10-26T08:19:37;1.40;;;0.28;;
67132;SDS011;54052;53.542;49.408;2022-10-26T08:22:03;2.53;;;0.40;;
67132;SDS011;54052;53.542;49.408;2022-10-26T08:24:30;0.50;;;0.30;;
67132;SDS011;54052;53.542;49.408;2022-10-26T08:26:56;6.10;;;0.55;;
67132;SDS011;54052;53.542;49.408;2022-10-26T08:29:22;4.07;;;1.45;;
67132;SDS011;54052;53.542;49.408;2022-10-26T08:31:48;5.68;;;0.65;;
67132;SDS011;54052;53.542;49.408;2022-10-26T08:34:14;1.50;;;0.50;;
67132;SDS011;54052;53.542;49.408;2022-10-26T08:36:40;0.63;;;0.20;;
67132;SDS011;54052;53.542;49.408;2022-10-26T08:39:06;0.55;;;0.40;;
67132;SDS011;54052;53.542;49.408;2022-10-26T08:41:34;1.23;;;0.52;;
67132;SDS011;54052;53.542;49.408;2022-10-26T08:44:48;0.63;;;0.30;;
67132;SDS011;54052;53.542;49.408;2022-10-26T08:46:53;2.28;;;0.40;;
67132;SDS011;54052;53.542;49.408;2022-10-26T08:51:53;0.93;;;0.30;;
67132;SDS011;54052;53.542;49.408;2022-10-26T08:56:58;0.40;;;0.20;;
67132;SDS011;54052;53.542;49.408;2022-10-26T09:02:01;0.13;;;0.13;;
67132;SDS011;54052;53.542;49.408;2022-10-26T09:04:29;0.73;;;0.20;;
67132;SDS011;54052;53.542;49.408;2022-10-26T09:09:58;0.60;;;0.20;;
67132;SDS011;54052;53.542;49.408;2022-10-26T09:15:23;0.13;;;0.10;;
67132;SDS011;54052;53.542;49.408;2022-10-26T09:18:10;0.28;;;0.17;;
67132;SDS011;54052;53.542;49.408;2022-10-26T09:23:20;0.10;;;0.10;;
67132;SDS011;54052;53.542;49.408;2022-10-26T09:26:08;3.72;;;0.20;;
67132;SDS011;54052;53.542;49.408;2022-10-26T09:28:40;0.45;;;0.20;;
67132;SDS011;54052;53.542;49.408;2022-10-26T09:31:12;0.40;;;0.30;;
67132;SDS011;54052;53.542;49.408;2022-10-26T09:33:40;0.38;;;0.17;;
67132;SDS011;54052;53.542;49.408;2022-10-26T09:36:08;0.52;;;0.20;;
67132;SDS011;54052;53.542;49.408;2022-10-26T09:39:21;0.30;;;0.13;;
67132;SDS011;54052;53.542;49.408;2022-10-26T09:41:42;0.38;;;0.20;;
67132;SDS011;54052;53.542;49.408;2022-10-26T09:44:30;0.30;;;0.10;;
67132;SDS011;54052;53.542;49.408;2022-10-26T09:47:03;0.35;;;0.20;;
67132;SDS011;54052;53.542;49.408;2022-10-26T09:49:48;0.20;;;0.20;;
67132;SDS011;54052;53.542;49.408;2022-10-26T09:52:19;2.47;;;0.20;;
67132;SDS011;54052;53.542;49.408;2022-10-26T09:54:45;4.40;;;0.20;;
67132;SDS011;54052;53.542;49.408;2022-10-26T09:57:14;2.42;;;0.50;;
67132;SDS011;54052;53.542;49.408;2022-10-26T09:59:44;2.50;;;0.20;;
67132;SDS011;54052;53.542;49.408;2022-10-26T10:05:00;3.90;;;0.52;;
67132;SDS011;54052;53.542;49.408;2022-10-26T10:07:26;0.43;;;0.30;;
67132;SDS011;54052;53.542;49.408;2022-10-26T10:10:06;0.40;;;0.30;;
67132;SDS011;54052;53.542;49.408;2022-10-26T10:12:46;1.33;;;0.30;;
67132;SDS011;54052;53.542;49.408;2022-10-26T10:15:16;0.75;;;0.25;;
67132;SDS011;54052;53.542;49.408;2022-10-26T10:18:00;0.20;;;0.10;;
67132;SDS011;54052;53.542;49.408;2022-10-26T10:20:30;0.73;;;0.10;;
67132;SDS011;54052;53.542;49.408;2022-10-26T10:22:58;1.00;;;0.10;;
67132;SDS011;54052;53.542;49.408;2022-10-26T10:25:33;0.65;;;0.20;;
67132;SDS011;54052;53.542;49.408;2022-10-26T10:28:00;1.35;;;0.20;;
67132;SDS011;54052;53.542;49.408;2022-10-26T10:30:29;2.20;;;0.20;;
67132;SDS011;54052;53.542;49.408;2022-10-26T10:33:10;0.13;;;0.10;;
67132;SDS011;54052;53.542;49.408;2022-10-26T10:35:37;0.10;;;0.00;;
67132;SDS011;54052;53.542;49.408;2022-10-26T10:38:14;0.57;;;0.10;;
67132;SDS011;54052;53.542;49.408;2022-10-26T10:40:48;0.65;;;0.20;;
67132;SDS011;54052;53.542;49.408;2022-10-26T10:43:16;0.22;;;0.20;;
67132;SDS011;54052;53.542;49.408;2022-10-26T10:45:46;1.20;;;0.40;;
67132;SDS011;54052;53.542;49.408;2022-10-26T10:48:15;0.40;;;0.20;;
67132;SDS011;54052;53.542;49.408;2022-10-26T10:50:52;0.60;;;0.30;;
67132;SDS011;54052;53.542;49.408;2022-10-26T10:53:20;1.75;;;0.50;;
67132;SDS011;54052;53.542;49.408;2022-10-26T10:59:36;1.75;;;0.10;;
67132;SDS011;54052;53.542;49.408;2022-10-26T11:05:06;0.47;;;0.20;;
67132;SDS011;54052;53.542;49.408;2022-10-26T11:10:29;0.40;;;0.30;;
67132;SDS011;54052;53.542;49.408;2022-10-26T11:13:06;0.40;;;0.20;;
67132;SDS011;54052;53.542;49.408;2022-10-26T11:15:43;0.30;;;0.13;;
67132;SDS011;54052;53.542;49.408;2022-10-26T11:18:20;0.82;;;0.20;;
67132;SDS011;54052;53.542;49.408;2022-10-26T11:20:55;1.95;;;0.30;;
67132;SDS011;54052;53.542;49.408;2022-10-26T11:29:19;2.20;;;0.40;;
67132;SDS011;54052;53.542;49.408;2022-10-26T11:37:35;1.73;;;0.60;;
67132;SDS011;54052;53.542;49.408;2022-10-26T11:40:23;2.88;;;1.00;;
67132;SDS011;54052;53.542;49.408;2022-10-26T11:54:08;1.00;;;0.32;;
67132;SDS011;54052;53.542;49.408;2022-10-26T11:56:43;0.60;;;0.30;;
67132;SDS011;54052;53.542;49.408;2022-10-26T11:59:19;0.50;;;0.35;;
67132;SDS011;54052;53.542;49.408;2022-10-26T12:01:52;0.65;;;0.30;;
67132;SDS011;54052;53.542;49.408;2022-10-26T12:04:22;0.10;;;0.10;;
67132;SDS011;54052;53.542;49.408;2022-10-26T12:06:53;1.10;;;0.40;;
67132;SDS011;54052;53.542;49.408;2022-10-26T12:09:25;2.25;;;0.55;;
67132;SDS011;54052;53.542;49.408;2022-10-26T12:12:16;0.22;;;0.20;;
67132;SDS011;54052;53.542;49.408;2022-10-26T12:14:55;1.20;;;0.28;;
67132;SDS011;54052;53.542;49.408;2022-10-26T12:17:51;0.50;;;0.35;;
67132;SDS011;54052;53.542;49.408;2022-10-26T12:23:09;0.45;;;0.10;;
67132;SDS011;54052;53.542;49.408;2022-10-26T12:25:36;0.95;;;0.30;;
67132;SDS011;54052;53.542;49.408;2022-10-26T12:28:03;0.38;;;0.10;;
67132;SDS011;54052;53.542;49.408;2022-10-26T12:30:31;3.60;;;0.20;;
67132;SDS011;54052;53.542;49.408;2022-10-26T12:33:02;6.88;;;0.22;;
67132;SDS011;54052;53.542;49.408;2022-10-26T12:35:54;1.40;;;0.22;;
67132;SDS011;54052;53.542;49.408;2022-10-26T12:38:25;0.40;;;0.30;;
67132;SDS011;54052;53.542;49.408;2022-10-26T12:43:45;4.28;;;0.55;;
67132;SDS011;54052;53.542;49.408;2022-10-26T12:48:41;1.55;;;0.38;;
67132;SDS011;54052;53.542;49.408;2022-10-26T12:56:23;0.98;;;0.50;;
67132;SDS011;54052;53.542;49.408;2022-10-26T12:59:02;1.63;;;0.60;;
67132;SDS011;54052;53.542;49.408;2022-10-26T13:07:17;0.75;;;0.20;;
67132;SDS011;54052;53.542;49.408;2022-10-26T13:09:51;1.30;;;0.40;;
67132;SDS011;54052;53.542;49.408;2022-10-26T13:12:21;2.95;;;0.30;;
67132;SDS011;54052;53.542;49.408;2022-10-26T13:14:59;1.75;;;0.30;;
67132;SDS011;54052;53.542;49.408;2022-10-26T13:17:29;0.73;;;0.38;;
67132;SDS011;54052;53.542;49.408;2022-10-26T13:20:00;0.45;;;0.30;;
67132;SDS011;54052;53.542;49.408;2022-10-26T13:22:28;0.40;;;0.20;;
67132;SDS011;54052;53.542;49.408;2022-10-26T13:25:02;0.47;;;0.30;;
67132;SDS011;54052;53.542;49.408;2022-10-26T13:32:47;0.90;;;0.50;;
67132;SDS011;54052;53.542;49.408;2022-10-26T13:35:19;2.78;;;0.50;;
67132;SDS011;54052;53.542;49.408;2022-10-26T13:37:47;2.83;;;0.50;;
67132;SDS011;54052;53.542;49.408;2022-10-26T13:40:16;0.60;;;0.40;;
67132;SDS011;54052;53.542;49.408;2022-10-26T13:42:48;1.20;;;0.37;;
67132;SDS011;54052;53.542;49.408;2022-10-26T13:45:17;0.30;;;0.20;;
67132;SDS011;54052;53.542;49.408;2022-10-26T13:50:37;5.30;;;0.20;;
67132;SDS011;54052;53.542;49.408;2022-10-26T13:53:12;1.48;;;0.20;;
67132;SDS011;54052;53.542;49.408;2022-10-26T13:56:21;1.88;;;0.38;;
67132;SDS011;54052;53.542;49.408;2022-10-26T13:59:02;0.52;;;0.15;;
67132;SDS011;54052;53.542;49.408;2022-10-26T14:01:31;0.63;;;0.20;;
67132;SDS011;54052;53.542;49.408;2022-10-26T14:03:57;5.63;;;0.30;;
67132;SDS011;54052;53.542;49.408;2022-10-26T14:08:53;0.40;;;0.15;;
67132;SDS011;54052;53.542;49.408;2022-10-26T14:11:28;1.98;;;0.20;;
67132;SDS011;54052;53.542;49.408;2022-10-26T14:13:57;0.47;;;0.20;;
67132;SDS011;54052;53.542;49.408;2022-10-26T14:16:24;0.30;;;0.28;;
67132;SDS011;54052;53.542;49.408;2022-10-26T14:18:53;2.42;;;0.20;;
67132;SDS011;54052;53.542;49.408;2022-10-26T14:21:20;0.50;;;0.20;;
67132;SDS011;54052;53.542;49.408;2022-10-26T14:23:57;1.52;;;0.43;;
67132;SDS011;54052;53.542;49.408;2022-10-26T14:26:25;2.85;;;1.00;;
67132;SDS011;54052;53.542;49.408;2022-10-26T14:29:02;3.00;;;1.00;;
67132;SDS011;54052;53.542;49.408;2022-10-26T14:31:29;5.57;;;2.13;;
67132;SDS011;54052;53.542;49.408;2022-10-26T14:33:57;9.55;;;3.92;;
67132;SDS011;54052;53.542;49.408;2022-10-26T14:36:28;7.20;;;4.22;;
67132;SDS011;54052;53.542;49.408;2022-10-26T14:39:06;10.05;;;3.70;;
67132;SDS011;54052;53.542;49.408;2022-10-26T14:41:39;5.50;;;2.22;;
67132;SDS011;54052;53.542;49.408;2022-10-26T14:44:08;9.27;;;2.80;;
67132;SDS011;54052;53.542;49.408;2022-10-26T14:46:45;8.70;;;4.03;;
67132;SDS011;54052;53.542;49.408;2022-10-26T14:49:16;16.00;;;3.90;;
67132;SDS011;54052;53.542;49.408;2022-10-26T14:51:48;9.13;;;4.60;;
67132;SDS011;54052;53.542;49.408;2022-10-26T14:54:25;10.02;;;4.38;;
67132;SDS011;54052;53.542;49.408;2022-10-26T14:56:52;8.65;;;4.25;;
67132;SDS011;54052;53.542;49.408;2022-10-26T14:59:26;15.13;;;5.53;;
67132;SDS011;54052;53.542;49.408;2022-10-26T15:01:54;17.55;;;4.32;;
67132;SDS011;54052;53.542;49.408;2022-10-26T15:04:28;16.80;;;4.28;;
67132;SDS011;54052;53.542;49.408;2022-10-26T15:07:00;10.48;;;4.63;;
67132;SDS011;54052;53.542;49.408;2022-10-26T15:09:47;22.70;;;5.05;;
67132;SDS011;54052;53.542;49.408;2022-10-26T15:15:21;9.75;;;3.67;;
67132;SDS011;54052;53.542;49.408;2022-10-26T15:17:48;10.35;;;3.17;;
67132;SDS011;54052;53.542;49.408;2022-10-26T15:20:20;5.23;;;2.67;;
67132;SDS011;54052;53.542;49.408;2022-10-26T15:22:51;4.15;;;1.88;;
67132;SDS011;54052;53.542;49.408;2022-10-26T15:25:20;8.07;;;2.90;;
67132;SDS011;54052;53.542;49.408;2022-10-26T15:27:49;8.23;;;2.30;;
67132;SDS011;54052;53.542;49.408;2022-10-26T15:30:17;16.20;;;2.17;;
67132;SDS011;54052;53.542;49.408;2022-10-26T15:32:53;13.80;;;2.45;;
67132;SDS011;54052;53.542;49.408;2022-10-26T15:35:30;10.35;;;1.98;;
67132;SDS011;54052;53.542;49.408;2022-10-26T15:37:57;8.60;;;1.40;;
67132;SDS011;54052;53.542;49.408;2022-10-26T15:40:25;9.50;;;3.22;;
67132;SDS011;54052;53.542;49.408;2022-10-26T15:42:53;2.97;;;1.40;;
67132;SDS011;54052;53.542;49.408;2022-10-26T15:45:23;6.85;;;1.38;;
67132;SDS011;54052;53.542;49.408;2022-10-26T15:47:59;11.05;;;1.48;;
67132;SDS011;54052;53.542;49.408;2022-10-26T15:50:42;10.35;;;1.30;;
67132;SDS011;54052;53.542;49.408;2022-10-26T15:53:11;16.42;;;1.45;;
67132;SDS011;54052;53.542;49.408;2022-10-26T15:55:43;15.60;;;1.27;;
67132;SDS011;54052;53.542;49.408;2022-10-26T15:58:10;8.68;;;1.13;;
67132;SDS011;54052;53.542;49.408;2022-10-26T16:00:36;21.35;;;1.30;;
67132;SDS011;54052;53.542;49.408;2022-10-26T16:03:02;9.73;;;1.30;;
67132;SDS011;54052;53.542;49.408;2022-10-26T16:05:28;3.53;;;1.10;;
67132;SDS011;54052;53.542;49.408;2022-10-26T16:07:54;2.95;;;1.30;;
67132;SDS011;54052;53.542;49.408;2022-10-26T16:10:21;5.32;;;1.20;;
67132;SDS011;54052;53.542;49.408;2022-10-26T16:12:49;12.43;;;1.85;;
67132;SDS011;54052;53.542;49.408;2022-10-26T16:15:19;9.77;;;1.63;;
67132;SDS011;54052;53.542;49.408;2022-10-26T16:17:49;8.48;;;1.30;;
67132;SDS011;54052;53.542;49.408;2022-10-26T16:20:16;6.32;;;1.60;;
67132;SDS011;54052;53.542;49.408;2022-10-26T16:22:45;5.18;;;1.33;;
67132;SDS011;54052;53.542;49.408;2022-10-26T16:25:16;12.65;;;1.73;;
67132;SDS011;54052;53.542;49.408;2022-10-26T16:27:44;10.00;;;1.67;;
67132;SDS011;54052;53.542;49.408;2022-10-26T16:30:12;6.80;;;1.80;;
67132;SDS011;54052;53.542;49.408;2022-10-26T16:32:39;5.93;;;1.42;;
67132;SDS011;54052;53.542;49.408;2022-10-26T16:35:05;4.93;;;1.13;;
67132;SDS011;54052;53.542;49.408;2022-10-26T16:37:32;5.80;;;0.98;;
67132;SDS011;54052;53.542;49.408;2022-10-26T16:39:58;0.75;;;0.50;;
67132;SDS011;54052;53.542;49.408;2022-10-26T16:42:24;2.17;;;0.55;;
67132;SDS011;54052;53.542;49.408;2022-10-26T16:44:50;6.53;;;0.55;;
67132;SDS011;54052;53.542;49.408;2022-10-26T16:47:16;1.00;;;0.60;;
67132;SDS011;54052;53.542;49.408;2022-10-26T16:49:43;4.90;;;0.80;;
67132;SDS011;54052;53.542;49.408;2022-10-26T16:52:10;5.13;;;0.70;;
67132;SDS011;54052;53.542;49.408;2022-10-26T16:54:36;1.17;;;0.57;;
67132;SDS011;54052;53.542;49.408;2022-10-26T16:57:02;3.47;;;0.85;;
67132;SDS011;54052;53.542;49.408;2022-10-26T16:59:29;15.45;;;1.98;;
67132;SDS011;54052;53.542;49.408;2022-10-26T17:01:55;15.23;;;1.83;;
67132;SDS011;54052;53.542;49.408;2022-10-26T17:04:21;11.82;;;1.92;;
67132;SDS011;54052;53.542;49.408;2022-10-26T17:06:48;16.60;;;4.60;;
67132;SDS011;54052;53.542;49.408;2022-10-26T17:09:14;8.63;;;1.60;;
67132;SDS011;54052;53.542;49.408;2022-10-26T17:11:40;13.50;;;2.05;;
67132;SDS011;54052;53.542;49.408;2022-10-26T17:14:07;9.07;;;2.35;;
67132;SDS011;54052;53.542;49.408;2022-10-26T17:16:33;8.75;;;2.38;;
67132;SDS011;54052;53.542;49.408;2022-10-26T17:18:59;4.60;;;2.70;;
67132;SDS011;54052;53.542;49.408;2022-10-26T17:21:32;4.55;;;1.70;;